Time;durP1;ratioP1;P1;durP2;ratioP2;P2;SDS_P1;SDS_P2;PMS_P1;PMS_P2;Temp;Humidity;BMP_temperature;BMP_pressure;BME280_temperature;BME280_humidity;BME280_pressure;Samples;Min_cycle;Max_cycle;Signal;HPM_P1;HPM_P2
2023/07/05 00:01:52;;;;;;;2.9;2.5;;;;;;;16.13;100;936.5876;;;;
2023/07/05 00:04:17;;;;;;;4.2;2;;;;;;;15.92;100;936.6248;;;;
2023/07/05 00:06:43;;;;;;;3.6;2;;;;;;;15.85;100;936.6636;;;;
2023/07/05 00:09:08;;;;;;;2.2;2;;;;;;;15.96;100;936.6758;;;;
2023/07/05 00:11:34;;;;;;;2.7;1.9;;;;;;;15.73;100;936.6271;;;;
2023/07/05 00:13:59;;;;;;;2.4;2.1;;;;;;;15.75;100;936.6581;;;;
2023/07/05 00:16:27;;;;;;;3.7;2.3;;;;;;;15.7;100;936.5681;;;;
2023/07/05 00:18:52;;;;;;;5;2;;;;;;;15.84;100;936.6661;;;;
2023/07/05 00:21:19;;;;;;;3;1.9;;;;;;;15.62;100;936.6478;;;;
2023/07/05 00:23:44;;;;;;;3.8;2;;;;;;;15.71;100;936.6114;;;;
2023/07/05 00:26:13;;;;;;;2.3;2;;;;;;;15.68;100;936.6277;;;;
2023/07/05 00:29:09;;;;;;;2.5;1.9;;;;;;;15.75;100;936.5683;;;;
2023/07/05 00:31:36;;;;;;;3.7;1.9;;;;;;;15.5;100;936.5259;;;;
2023/07/05 00:34:01;;;;;;;2.8;2.3;;;;;;;15.55;100;936.5036;;;;
2023/07/05 00:36:28;;;;;;;3;1.9;;;;;;;15.51;100;936.4785;;;;
2023/07/05 00:38:53;;;;;;;1.9;1.8;;;;;;;15.69;100;936.4671;;;;
2023/07/05 00:41:20;;;;;;;3.8;2.5;;;;;;;15.69;100;936.4911;;;;
2023/07/05 00:43:48;;;;;;;2.9;1.8;;;;;;;15.72;100;936.4443;;;;
2023/07/05 00:46:13;;;;;;;2.6;1.8;;;;;;;15.63;100;936.5233;;;;
2023/07/05 00:48:41;;;;;;;4.8;2.2;;;;;;;15.66;100;936.4964;;;;
2023/07/05 00:51:07;;;;;;;4;1.8;;;;;;;15.45;100;936.4655;;;;
2023/07/05 00:53:34;;;;;;;2.3;1.6;;;;;;;15.53;100;936.3747;;;;
2023/07/05 00:56:00;;;;;;;2.8;1.8;;;;;;;15.56;100;936.3759;;;;
2023/07/05 00:58:25;;;;;;;4;2.2;;;;;;;15.63;100;936.4182;;;;
2023/07/05 01:00:50;;;;;;;3.2;1.8;;;;;;;15.55;100;936.4498;;;;
2023/07/05 01:03:16;;;;;;;3.3;2.1;;;;;;;15.48;100;936.4677;;;;
2023/07/05 01:05:43;;;;;;;3.7;2;;;;;;;15.49;100;936.4144;;;;
2023/07/05 01:08:10;;;;;;;2.7;1.8;;;;;;;15.5;100;936.4481;;;;
2023/07/05 01:10:34;;;;;;;2.5;2;;;;;;;15.44;100;936.4792;;;;
2023/07/05 01:12:59;;;;;;;2.9;1.9;;;;;;;15.31;100;936.5151;;;;
2023/07/05 01:15:25;;;;;;;2.3;2;;;;;;;15.32;100;936.5471;;;;
2023/07/05 01:17:50;;;;;;;3.6;1.9;;;;;;;15.34;100;936.5323;;;;
2023/07/05 01:20:19;;;;;;;1.9;1.7;;;;;;;15.35;100;936.4648;;;;
2023/07/05 01:22:44;;;;;;;2.9;1.8;;;;;;;15.31;100;936.442;;;;
2023/07/05 01:25:10;;;;;;;4.1;2.4;;;;;;;15.38;100;936.4877;;;;
2023/07/05 01:27:37;;;;;;;3;1.7;;;;;;;15.43;100;936.5164;;;;
2023/07/05 01:30:02;;;;;;;2.9;2;;;;;;;15.48;100;936.49;;;;
2023/07/05 01:32:29;;;;;;;2.6;1.9;;;;;;;15.42;100;936.437;;;;
2023/07/05 01:35:39;;;;;;;3.4;2;;;;;;;15.27;100;936.4666;;;;
2023/07/05 01:38:06;;;;;;;3.4;2.1;;;;;;;15.4;100;936.5132;;;;
2023/07/05 01:40:31;;;;;;;3;2.5;;;;;;;15.37;100;936.4044;;;;
2023/07/05 01:42:56;;;;;;;2.9;2;;;;;;;15.34;100;936.3061;;;;
2023/07/05 01:45:32;;;;;;;2.3;2;;;;;;;15.22;100;936.4006;;;;
2023/07/05 01:48:03;;;;;;;2;1.8;;;;;;;15.18;100;936.3926;;;;
2023/07/05 01:50:28;;;;;;;2.9;1.9;;;;;;;15.19;100;936.3502;;;;
2023/07/05 01:56:04;;;;;;;1.9;1.6;;;;;;;15.44;100;936.2755;;;;
2023/07/05 01:58:30;;;;;;;5;1.9;;;;;;;15.49;100;936.307;;;;
2023/07/05 02:00:59;;;;;;;2.1;1.9;;;;;;;15.46;100;936.2841;;;;
2023/07/05 02:03:24;;;;;;;2.8;1.6;;;;;;;15.48;100;936.3071;;;;
2023/07/05 02:05:52;;;;;;;3.6;1.8;;;;;;;15.51;100;936.2385;;;;
2023/07/05 02:08:17;;;;;;;2.1;1.6;;;;;;;15.54;100;936.226;;;;
2023/07/05 02:10:42;;;;;;;2.7;1.9;;;;;;;15.56;100;936.2097;;;;
2023/07/05 02:13:10;;;;;;;4.3;1.7;;;;;;;15.4;100;936.165;;;;
2023/07/05 02:15:35;;;;;;;1.9;1.8;;;;;;;15.28;100;936.0364;;;;
2023/07/05 02:17:58;;;;;;;2.2;1.7;;;;;;;15.24;100;936.0594;;;;
2023/07/05 02:20:30;;;;;;;3.6;2;;;;;;;15.34;100;935.913;;;;
2023/07/05 02:22:57;;;;;;;2.3;2.1;;;;;;;15.18;100;935.8825;;;;
2023/07/05 02:25:22;;;;;;;3.1;2.2;;;;;;;15.2;100;936.0131;;;;
2023/07/05 02:27:49;;;;;;;2.5;1.7;;;;;;;15.05;100;935.9626;;;;
2023/07/05 02:30:15;;;;;;;2.8;1.9;;;;;;;15.07;100;935.9905;;;;
2023/07/05 02:32:40;;;;;;;2.9;1.9;;;;;;;15.12;100;935.9803;;;;
2023/07/05 02:35:14;;;;;;;2.7;1.7;;;;;;;15.17;100;935.9885;;;;
2023/07/05 02:37:46;;;;;;;3.3;1.9;;;;;;;15.09;100;935.9398;;;;
2023/07/05 02:40:18;;;;;;;2.6;1.9;;;;;;;15.29;100;935.9753;;;;
2023/07/05 02:42:50;;;;;;;2.4;1.8;;;;;;;15.12;100;935.9258;;;;
2023/07/05 02:45:20;;;;;;;2.6;2.1;;;;;;;15.18;100;935.9122;;;;
2023/07/05 02:47:45;;;;;;;5.3;2;;;;;;;15.19;100;935.8585;;;;
2023/07/05 02:50:17;;;;;;;4.2;2.4;;;;;;;15.14;100;935.9448;;;;
2023/07/05 02:52:41;;;;;;;3.4;2.1;;;;;;;15.15;100;935.9688;;;;
2023/07/05 02:55:10;;;;;;;5.2;2;;;;;;;15.2;100;935.9786;;;;
2023/07/05 02:57:35;;;;;;;3;2.2;;;;;;;15.04;100;936.0181;;;;
2023/07/05 03:00:00;;;;;;;3.1;1.8;;;;;;;14.9;100;936.0219;;;;
2023/07/05 03:02:25;;;;;;;2.8;1.8;;;;;;;14.79;100;936.0331;;;;
2023/07/05 03:04:52;;;;;;;2.9;1.8;;;;;;;14.78;100;936.0717;;;;
2023/07/05 03:07:18;;;;;;;2.4;1.8;;;;;;;14.85;100;936.0817;;;;
2023/07/05 03:09:48;;;;;;;1.9;1.7;;;;;;;14.83;100;936.0779;;;;
2023/07/05 03:12:08;;;;;;;3.7;2;;;;;;;14.78;100;936.0613;;;;
2023/07/05 03:14:48;;;;;;;3.4;1.8;;;;;;;14.84;100;936.1379;;;;
2023/07/05 03:17:51;;;;;;;2.8;2.1;;;;;;;14.83;100;936.1052;;;;
2023/07/05 03:20:22;;;;;;;3.8;2.1;;;;;;;14.95;100;936.1769;;;;
2023/07/05 03:22:52;;;;;;;2.2;2;;;;;;;14.94;100;936.1096;;;;
2023/07/05 03:31:06;;;;;;;2.9;2.2;;;;;;;14.2;100;936.2072;;;;
2023/07/05 03:33:35;;;;;;;2.2;2;;;;;;;14.4;100;936.1722;;;;
2023/07/05 03:36:00;;;;;;;2.5;2;;;;;;;14.49;100;936.1423;;;;
2023/07/05 03:38:29;;;;;;;4.4;2.3;;;;;;;14.52;100;936.1484;;;;
2023/07/05 03:40:54;;;;;;;2.3;2;;;;;;;14.55;100;936.1217;;;;
2023/07/05 03:43:20;;;;;;;2.1;1.8;;;;;;;14.63;100;936.0724;;;;
2023/07/05 03:45:45;;;;;;;2.9;2.3;;;;;;;14.51;100;936.1141;;;;
2023/07/05 03:48:10;;;;;;;3.2;2.3;;;;;;;14.27;100;936.2084;;;;
2023/07/05 03:50:35;;;;;;;2.5;2;;;;;;;14.39;100;936.1786;;;;
2023/07/05 03:53:04;;;;;;;2.9;2.1;;;;;;;14.46;100;936.173;;;;
2023/07/05 03:55:29;;;;;;;5.4;2.3;;;;;;;14.51;100;936.2206;;;;
2023/07/05 03:58:00;;;;;;;2.7;2.3;;;;;;;14.5;100;936.1871;;;;
2023/07/05 04:02:45;;;;;;;2.9;2;;;;;;;14.51;100;936.1509;;;;
2023/07/05 04:05:16;;;;;;;4.6;2.3;;;;;;;14.67;100;936.0993;;;;
2023/07/05 04:07:46;;;;;;;3.4;1.8;;;;;;;14.68;100;936.0511;;;;
2023/07/05 04:10:14;;;;;;;2.6;1.6;;;;;;;14.61;100;936.0642;;;;
2023/07/05 04:12:42;;;;;;;2.3;1.6;;;;;;;14.54;100;936.1146;;;;
2023/07/05 04:15:08;;;;;;;2;1.6;;;;;;;14.53;100;936.0419;;;;
2023/07/05 04:17:33;;;;;;;8.2;3.8;;;;;;;14.48;100;936.1616;;;;
2023/07/05 04:20:02;;;;;;;5.2;3.3;;;;;;;14.41;100;936.1424;;;;
2023/07/05 04:22:30;;;;;;;8.4;4.2;;;;;;;14.2;100;936.0902;;;;
2023/07/05 04:24:55;;;;;;;7.4;4.5;;;;;;;14.22;100;936.1359;;;;
2023/07/05 04:27:25;;;;;;;6.7;4.1;;;;;;;14.38;100;936.0906;;;;
2023/07/05 04:29:50;;;;;;;7.4;4.1;;;;;;;14.33;100;936.1271;;;;
2023/07/05 04:32:15;;;;;;;5.4;3.7;;;;;;;14.28;100;936.0963;;;;
2023/07/05 04:34:47;;;;;;;4.1;2.6;;;;;;;14.31;100;936.1497;;;;
2023/07/05 04:37:16;;;;;;;3.5;2.3;;;;;;;14.36;100;936.1838;;;;
2023/07/05 04:39:46;;;;;;;2.7;1.8;;;;;;;14.62;100;936.0966;;;;
2023/07/05 04:42:17;;;;;;;3.9;2.1;;;;;;;14.81;100;936.1844;;;;
2023/07/05 04:44:48;;;;;;;2.5;2.1;;;;;;;14.89;100;936.1437;;;;
2023/07/05 04:47:19;;;;;;;3;2.1;;;;;;;14.96;100;936.0957;;;;
2023/07/05 04:49:49;;;;;;;4.4;2.4;;;;;;;15.07;99.88965;936.1902;;;;
2023/07/05 04:52:17;;;;;;;3.5;3.1;;;;;;;15.17;99.17578;936.2949;;;;
2023/07/05 04:54:42;;;;;;;4.2;2.5;;;;;;;15.15;98.06152;936.2864;;;;
2023/07/05 04:57:10;;;;;;;5.2;2.5;;;;;;;15.24;98.49805;936.3033;;;;
2023/07/05 04:59:35;;;;;;;3.6;2.7;;;;;;;15.32;97.81152;936.2358;;;;
2023/07/05 05:02:06;;;;;;;2.8;2.4;;;;;;;15.41;97.6123;936.2883;;;;
2023/07/05 05:04:31;;;;;;;4.2;2.2;;;;;;;15.37;98.30859;936.2889;;;;
2023/07/05 05:07:00;;;;;;;4.1;2.1;;;;;;;15.43;99.35059;936.2908;;;;
2023/07/05 05:09:28;;;;;;;3.2;2;;;;;;;16.18;94.44336;936.247;;;;
2023/07/05 05:11:53;;;;;;;2.7;1.8;;;;;;;17.31;92.45801;936.3122;;;;
2023/07/05 05:14:18;;;;;;;1.9;1.7;;;;;;;;;;;;;
2023/07/05 05:16:44;;;;;;;1.4;1.2;;;;;;;;;;;;;
2023/07/05 05:19:10;;;;;;;3.7;1.7;;;;;;;;;;;;;
2023/07/05 05:21:35;;;;;;;1.5;1.4;;;;;;;;;;;;;
2023/07/05 05:24:00;;;;;;;1.5;1.2;;;;;;;;;;;;;
2023/07/05 05:26:25;;;;;;;2.8;1.4;;;;;;;;;;;;;
2023/07/05 05:28:51;;;;;;;1.6;1.3;;;;;;;;;;;;;
2023/07/05 05:31:16;;;;;;;2;1.5;;;;;;;;;;;;;
2023/07/05 05:33:42;;;;;;;1.6;1.3;;;;;;;;;;;;;
2023/07/05 05:36:08;;;;;;;2.9;1.3;;;;;;;;;;;;;
2023/07/05 05:38:35;;;;;;;2.3;1.1;;;;;;;;;;;;;
2023/07/05 05:41:00;;;;;;;1.5;1.2;;;;;;;;;;;;;
2023/07/05 05:43:25;;;;;;;3.5;1.2;;;;;;;;;;;;;
2023/07/05 05:45:50;;;;;;;1.8;1.1;;;;;;;;;;;;;
2023/07/05 05:48:15;;;;;;;3.9;1.1;;;;;;;;;;;;;
2023/07/05 05:50:40;;;;;;;1.8;1.2;;;;;;;;;;;;;
2023/07/05 05:53:05;;;;;;;1.3;1.2;;;;;;;;;;;;;
2023/07/05 05:55:30;;;;;;;3.1;1.4;;;;;;;;;;;;;
2023/07/05 05:57:55;;;;;;;2.4;1.1;;;;;;;;;;;;;
2023/07/05 06:00:21;;;;;;;1.9;1.2;;;;;;;;;;;;;
2023/07/05 06:02:46;;;;;;;1.8;1.3;;;;;;;;;;;;;
2023/07/05 06:05:11;;;;;;;2.4;1.4;;;;;;;;;;;;;
2023/07/05 06:07:36;;;;;;;1.4;1.3;;;;;;;;;;;;;
2023/07/05 06:10:03;;;;;;;1.4;1;;;;;;;;;;;;;
2023/07/05 06:12:28;;;;;;;1.3;1.2;;;;;;;;;;;;;
2023/07/05 06:14:53;;;;;;;1.5;1.2;;;;;;;;;;;;;
2023/07/05 06:17:19;;;;;;;1.4;1.1;;;;;;;;;;;;;
2023/07/05 06:19:48;;;;;;;1.2;1.1;;;;;;;;;;;;;
2023/07/05 06:22:13;;;;;;;2.4;1.1;;;;;;;;;;;;;
2023/07/05 06:24:42;;;;;;;1.2;1.1;;;;;;;;;;;;;
2023/07/05 06:27:03;;;;;;;3.1;1.1;;;;;;;;;;;;;
2023/07/05 06:29:30;;;;;;;1.3;1.2;;;;;;;;;;;;;
2023/07/05 06:31:57;;;;;;;2.2;1.3;;;;;;;;;;;;;
2023/07/05 06:34:22;;;;;;;2;1.2;;;;;;;;;;;;;
2023/07/05 06:36:48;;;;;;;1.9;1.4;;;;;;;;;;;;;
2023/07/05 06:39:16;;;;;;;1.8;1.3;;;;;;;;;;;;;
2023/07/05 06:41:41;;;;;;;1.9;1.6;;;;;;;;;;;;;
2023/07/05 06:44:07;;;;;;;1.7;1.2;;;;;;;;;;;;;
2023/07/05 06:46:32;;;;;;;2.1;1.5;;;;;;;;;;;;;
2023/07/05 06:48:57;;;;;;;2.9;1.6;;;;;;;;;;;;;
2023/07/05 06:51:24;;;;;;;4.2;1.9;;;;;;;;;;;;;
2023/07/05 06:53:50;;;;;;;2.8;1.7;;;;;;;;;;;;;
2023/07/05 06:56:15;;;;;;;2.3;1.4;;;;;;;;;;;;;
2023/07/05 06:58:40;;;;;;;2.3;1.4;;;;;;;;;;;;;
2023/07/05 07:01:05;;;;;;;2;1.1;;;;;;;;;;;;;
2023/07/05 07:03:33;;;;;;;3.4;1.3;;;;;;;;;;;;;
2023/07/05 07:05:57;;;;;;;1.3;1.2;;;;;;;;;;;;;
2023/07/05 07:08:23;;;;;;;1.7;1.4;;;;;;;;;;;;;
2023/07/05 07:10:48;;;;;;;2;1.2;;;;;;;;;;;;;
2023/07/05 07:13:14;;;;;;;1.3;1.2;;;;;;;;;;;;;
2023/07/05 07:15:39;;;;;;;1.7;1.3;;;;;;;;;;;;;
2023/07/05 07:18:05;;;;;;;3.3;1.4;;;;;;;;;;;;;
2023/07/05 07:20:31;;;;;;;1.3;1.2;;;;;;;;;;;;;
2023/07/05 07:22:59;;;;;;;1.1;1;;;;;;;;;;;;;
2023/07/05 07:25:23;;;;;;;1.3;1.2;;;;;;;;;;;;;
2023/07/05 07:27:49;;;;;;;2.3;1.1;;;;;;;;;;;;;
2023/07/05 07:30:14;;;;;;;3.9;1.5;;;;;;;;;;;;;
2023/07/05 07:32:42;;;;;;;2.6;1.5;;;;;;;;;;;;;
2023/07/05 07:35:07;;;;;;;1.4;1.1;;;;;;;;;;;;;
2023/07/05 07:37:33;;;;;;;1.7;1.3;;;;;;;;;;;;;
2023/07/05 07:39:58;;;;;;;1.3;1.2;;;;;;;;;;;;;
2023/07/05 07:42:26;;;;;;;1.5;1.1;;;;;;;;;;;;;
2023/07/05 07:44:51;;;;;;;1.7;1.3;;;;;;;;;;;;;
2023/07/05 07:47:17;;;;;;;3;1.4;;;;;;;;;;;;;
2023/07/05 07:49:41;;;;;;;1.7;1.3;;;;;;;;;;;;;
2023/07/05 07:52:11;;;;;;;1.8;1.1;;;;;;;;;;;;;
2023/07/05 07:54:34;;;;;;;1.9;1.4;;;;;;;;;;;;;
2023/07/05 07:57:01;;;;;;;1.8;1.2;;;;;;;;;;;;;
2023/07/05 07:59:26;;;;;;;1.7;1.5;;;;;;;;;;;;;
2023/07/05 08:01:52;;;;;;;1.8;1.4;;;;;;;;;;;;;
2023/07/05 08:04:17;;;;;;;1.8;1.3;;;;;;;;;;;;;
2023/07/05 08:06:42;;;;;;;1.3;1.2;;;;;;;;;;;;;
2023/07/05 08:09:07;;;;;;;1.5;1.4;;;;;;;;;;;;;
2023/07/05 08:11:32;;;;;;;1.3;1.2;;;;;;;;;;;;;
2023/07/05 08:13:59;;;;;;;1.8;1.2;;;;;;;;;;;;;
2023/07/05 08:16:24;;;;;;;2;1.5;;;;;;;;;;;;;
2023/07/05 08:18:50;;;;;;;1.5;1.4;;;;;;;;;;;;;
2023/07/05 08:21:16;;;;;;;1.3;1.2;;;;;;;;;;;;;
2023/07/05 08:23:42;;;;;;;1.6;1.5;;;;;;;;;;;;;
2023/07/05 08:26:07;;;;;;;3.2;1.4;;;;;;;;;;;;;
2023/07/05 08:28:37;;;;;;;1.5;1.4;;;;;;;;;;;;;
2023/07/05 08:31:01;;;;;;;1.8;1.3;;;;;;;;;;;;;
2023/07/05 08:33:26;;;;;;;5;1.4;;;;;;;;;;;;;
2023/07/05 08:35:51;;;;;;;1.6;1.3;;;;;;;;;;;;;
2023/07/05 08:38:18;;;;;;;3;1.6;;;;;;;;;;;;;
2023/07/05 08:40:42;;;;;;;1.4;1.2;;;;;;;;;;;;;
2023/07/05 08:43:07;;;;;;;1.9;1.6;;;;;;;;;;;;;
2023/07/05 08:45:32;;;;;;;1.7;1.6;;;;;;;;;;;;;
2023/07/05 08:48:00;;;;;;;1.8;1.4;;;;;;;;;;;;;
2023/07/05 08:50:24;;;;;;;1.6;1.3;;;;;;;;;;;;;
2023/07/05 08:52:54;;;;;;;1.6;1.4;;;;;;;;;;;;;
2023/07/05 08:55:25;;;;;;;2.5;1.3;;;;;;;;;;;;;
2023/07/05 08:57:50;;;;;;;1.7;1.5;;;;;;;;;;;;;
2023/07/05 09:00:15;;;;;;;2.4;1.4;;;;;;;;;;;;;
2023/07/05 09:02:40;;;;;;;2.6;1.3;;;;;;;;;;;;;
2023/07/05 09:05:09;;;;;;;1.9;1.5;;;;;;;;;;;;;
2023/07/05 09:07:35;;;;;;;2;1.4;;;;;;;;;;;;;
2023/07/05 09:10:00;;;;;;;2.6;1.6;;;;;;;;;;;;;
2023/07/05 09:12:25;;;;;;;2.6;1.6;;;;;;;;;;;;;
2023/07/05 09:14:50;;;;;;;2.2;1.4;;;;;;;;;;;;;
2023/07/05 09:17:15;;;;;;;2.8;1.6;;;;;;;;;;;;;
2023/07/05 09:19:40;;;;;;;2.9;1.7;;;;;;;;;;;;;
2023/07/05 09:22:06;;;;;;;1.7;1.4;;;;;;;;;;;;;
2023/07/05 09:24:31;;;;;;;5.8;1.7;;;;;;;;;;;;;
2023/07/05 09:26:56;;;;;;;3.2;1.6;;;;;;;;;;;;;
2023/07/05 09:29:23;;;;;;;4.4;1.5;;;;;;;;;;;;;
2023/07/05 09:31:48;;;;;;;1.8;1.3;;;;;;;;;;;;;
2023/07/05 09:34:14;;;;;;;2.5;1.7;;;;;;;;;;;;;
2023/07/05 09:36:40;;;;;;;1.6;1.5;;;;;;;;;;;;;
2023/07/05 09:39:06;;;;;;;1.8;1.6;;;;;;;;;;;;;
2023/07/05 09:41:30;;;;;;;2.1;1.9;;;;;;;;;;;;;
2023/07/05 09:43:55;;;;;;;3.8;1.2;;;;;;;;;;;;;
2023/07/05 09:46:20;;;;;;;1.7;1.5;;;;;;;;;;;;;
2023/07/05 09:48:46;;;;;;;3.4;1.7;;;;;;;;;;;;;
2023/07/05 09:51:11;;;;;;;3.1;1.6;;;;;;;;;;;;;
2023/07/05 09:53:36;;;;;;;3.1;1.7;;;;;;;;;;;;;
2023/07/05 09:56:03;;;;;;;2.2;1.7;;;;;;;;;;;;;
2023/07/05 09:58:28;;;;;;;3.6;1.7;;;;;;;;;;;;;
2023/07/05 10:00:56;;;;;;;3.6;1.8;;;;;;;;;;;;;
2023/07/05 10:03:21;;;;;;;4.6;1.8;;;;;;;;;;;;;
2023/07/05 10:05:49;;;;;;;2.2;1.7;;;;;;;;;;;;;
2023/07/05 10:08:12;;;;;;;4.2;1.6;;;;;;;;;;;;;
2023/07/05 10:10:40;;;;;;;3;2;;;;;;;;;;;;;
2023/07/05 10:13:02;;;;;;;2;1.7;;;;;;;;;;;;;
2023/07/05 10:15:27;;;;;;;3.2;1.9;;;;;;;;;;;;;
2023/07/05 10:17:53;;;;;;;1.9;1.7;;;;;;;;;;;;;
2023/07/05 10:20:20;;;;;;;3.9;1.8;;;;;;;;;;;;;
2023/07/05 10:22:45;;;;;;;2.2;2;;;;;;;;;;;;;
2023/07/05 10:25:13;;;;;;;1.8;1.6;;;;;;;;;;;;;
2023/07/05 10:27:42;;;;;;;2;1.8;;;;;;;;;;;;;
2023/07/05 10:30:07;;;;;;;2.5;1.8;;;;;;;;;;;;;
2023/07/05 10:32:33;;;;;;;2.1;1.7;;;;;;;;;;;;;
2023/07/05 10:34:58;;;;;;;2.9;1.7;;;;;;;;;;;;;
2023/07/05 10:37:26;;;;;;;5.6;2.4;;;;;;;;;;;;;
2023/07/05 10:39:55;;;;;;;3;2.2;;;;;;;;;;;;;
2023/07/05 10:42:20;;;;;;;4.8;2.2;;;;;;;;;;;;;
2023/07/05 10:44:47;;;;;;;3.3;1.8;;;;;;;;;;;;;
2023/07/05 10:47:12;;;;;;;3.2;2;;;;;;;;;;;;;
2023/07/05 10:49:38;;;;;;;2;1.6;;;;;;;;;;;;;
2023/07/05 10:52:03;;;;;;;2.8;1.8;;;;;;;;;;;;;
2023/07/05 10:54:28;;;;;;;3.6;1.9;;;;;;;;;;;;;
2023/07/05 10:56:53;;;;;;;2.2;2;;;;;;;;;;;;;
2023/07/05 10:59:18;;;;;;;3.3;2;;;;;;;;;;;;;
2023/07/05 11:01:43;;;;;;;2.2;2;;;;;;;;;;;;;
2023/07/05 11:04:09;;;;;;;3.1;2.2;;;;;;;;;;;;;
2023/07/05 11:06:35;;;;;;;5.2;2.2;;;;;;;;;;;;;
2023/07/05 11:09:01;;;;;;;2.3;1.9;;;;;;;;;;;;;
2023/07/05 11:11:26;;;;;;;4.4;2.2;;;;;;;;;;;;;
2023/07/05 11:13:51;;;;;;;3.1;2.1;;;;;;;;;;;;;
2023/07/05 11:16:18;;;;;;;5.1;2.1;;;;;;;;;;;;;
2023/07/05 11:18:43;;;;;;;3.2;1.9;;;;;;;;;;;;;
2023/07/05 11:21:10;;;;;;;5.8;2.3;;;;;;;;;;;;;
2023/07/05 11:23:35;;;;;;;2.9;2.2;;;;;;;;;;;;;
2023/07/05 11:26:00;;;;;;;3.8;2.4;;;;;;;;;;;;;
2023/07/05 11:28:28;;;;;;;3;2.1;;;;;;;;;;;;;
2023/07/05 11:30:55;;;;;;;3;2.1;;;;;;;;;;;;;
2023/07/05 11:33:20;;;;;;;4.1;1.7;;;;;;;;;;;;;
2023/07/05 11:35:43;;;;;;;2.1;1.2;;;;;;;;;;;;;
2023/07/05 11:38:08;;;;;;;1.6;1.1;;;;;;;;;;;;;
2023/07/05 11:40:33;;;;;;;2.1;0.8;;;;;;;;;;;;;
2023/07/05 11:43:00;;;;;;;1.5;1.1;;;;;;;;;;;;;
2023/07/05 11:45:25;;;;;;;2.3;1;;;;;;;;;;;;;
2023/07/05 11:47:51;;;;;;;1.2;1;;;;;;;;;;;;;
2023/07/05 11:50:16;;;;;;;3;1.2;;;;;;;;;;;;;
2023/07/05 11:52:41;;;;;;;2.4;1.3;;;;;;;;;;;;;
2023/07/05 11:55:06;;;;;;;6.4;1.7;;;;;;;;;;;;;
2023/07/05 11:57:34;;;;;;;4;1.8;;;;;;;;;;;;;
2023/07/05 11:59:59;;;;;;;5.1;1.9;;;;;;;;;;;;;
2023/07/05 12:02:27;;;;;;;3.5;1.3;;;;;;;;;;;;;
2023/07/05 12:04:53;;;;;;;3.2;1.7;;;;;;;;;;;;;
2023/07/05 12:07:20;;;;;;;5.3;1.8;;;;;;;;;;;;;
2023/07/05 12:09:46;;;;;;;5.4;2;;;;;;;;;;;;;
2023/07/05 12:12:10;;;;;;;3.6;1.6;;;;;;;;;;;;;
2023/07/05 12:14:36;;;;;;;4.1;1.5;;;;;;;;;;;;;
2023/07/05 12:17:01;;;;;;;7.4;1.9;;;;;;;;;;;;;
2023/07/05 12:19:30;;;;;;;3.6;1.6;;;;;;;;;;;;;
2023/07/05 12:21:53;;;;;;;2;1.3;;;;;;;;;;;;;
2023/07/05 12:24:20;;;;;;;2.5;1.3;;;;;;;;;;;;;
2023/07/05 12:26:45;;;;;;;2.9;1.3;;;;;;;;;;;;;
2023/07/05 12:29:13;;;;;;;5.3;1.3;;;;;;;;;;;;;
2023/07/05 12:31:38;;;;;;;3.4;1.4;;;;;;;;;;;;;
2023/07/05 12:34:09;;;;;;;5.3;1.7;;;;;;;;;;;;;
2023/07/05 12:36:31;;;;;;;4.3;1.8;;;;;;;;;;;;;
2023/07/05 12:38:59;;;;;;;2.4;1.3;;;;;;;;;;;;;
2023/07/05 12:41:24;;;;;;;3.2;1.5;;;;;;;;;;;;;
2023/07/05 12:43:49;;;;;;;2.4;1.3;;;;;;;;;;;;;
2023/07/05 12:46:14;;;;;;;3.5;1.6;;;;;;;;;;;;;
2023/07/05 12:48:39;;;;;;;2.5;1.5;;;;;;;;;;;;;
2023/07/05 12:51:06;;;;;;;3.2;1.6;;;;;;;;;;;;;
2023/07/05 12:53:31;;;;;;;2.5;1.5;;;;;;;;;;;;;
2023/07/05 12:55:57;;;;;;;3.9;1.6;;;;;;;;;;;;;
2023/07/05 12:58:22;;;;;;;2.9;1.2;;;;;;;;;;;;;
2023/07/05 13:00:49;;;;;;;4.9;1.3;;;;;;;;;;;;;
2023/07/05 13:03:14;;;;;;;3.7;1.3;;;;;;;;;;;;;
2023/07/05 13:05:40;;;;;;;2.8;1.2;;;;;;;;;;;;;
2023/07/05 13:08:05;;;;;;;4.8;1.3;;;;;;;;;;;;;
2023/07/05 13:10:33;;;;;;;2.9;1.3;;;;;;;;;;;;;
2023/07/05 13:12:58;;;;;;;3.9;1.6;;;;;;;;;;;;;
2023/07/05 13:15:27;;;;;;;2.1;1.3;;;;;;;;;;;;;
2023/07/05 13:17:52;;;;;;;2.5;1.2;;;;;;;;;;;;;
2023/07/05 13:20:23;;;;;;;2.4;1.3;;;;;;;;;;;;;
2023/07/05 13:22:47;;;;;;;2.2;1;;;;;;;;;;;;;
2023/07/05 13:25:16;;;;;;;3.2;1.3;;;;;;;;;;;;;
2023/07/05 13:27:41;;;;;;;1.6;1.1;;;;;;;;;;;;;
2023/07/05 13:30:11;;;;;;;3.5;1.4;;;;;;;;;;;;;
2023/07/05 13:32:40;;;;;;;2.3;1.1;;;;;;;;;;;;;
2023/07/05 13:35:05;;;;;;;3.9;1.3;;;;;;;;;;;;;
2023/07/05 13:37:34;;;;;;;2.3;1.3;;;;;;;;;;;;;
2023/07/05 13:40:09;;;;;;;2.1;1.3;;;;;;;;;;;;;
2023/07/05 13:42:28;;;;;;;4.5;1.8;;;;;;;;;;;;;
2023/07/05 13:44:55;;;;;;;2.4;1.3;;;;;;;;;;;;;
2023/07/05 13:47:20;;;;;;;2.2;1.4;;;;;;;;;;;;;
2023/07/05 13:49:47;;;;;;;2;1.4;;;;;;;;;;;;;
2023/07/05 13:52:12;;;;;;;2.8;1.2;;;;;;;;;;;;;
2023/07/05 13:54:38;;;;;;;2.3;1.2;;;;;;;;;;;;;
2023/07/05 13:57:04;;;;;;;2.7;1.5;;;;;;;;;;;;;
2023/07/05 13:59:29;;;;;;;1.7;1.3;;;;;;;;;;;;;
2023/07/05 14:01:54;;;;;;;2.2;1.3;;;;;;;;;;;;;
2023/07/05 14:04:19;;;;;;;2.2;1;;;;;;;;;;;;;
2023/07/05 14:06:45;;;;;;;1.8;1.1;;;;;;;;;;;;;
2023/07/05 14:09:10;;;;;;;2.4;1.3;;;;;;;;;;;;;
2023/07/05 14:11:37;;;;;;;1.5;1.3;;;;;;;;;;;;;
2023/07/05 14:14:02;;;;;;;1.7;1.1;;;;;;;;;;;;;
2023/07/05 14:16:28;;;;;;;2.5;1.6;;;;;;;;;;;;;
2023/07/05 14:18:53;;;;;;;2.6;1.3;;;;;;;;;;;;;
2023/07/05 14:21:19;;;;;;;2.2;1.3;;;;;;;;;;;;;
2023/07/05 14:23:44;;;;;;;2.5;1.4;;;;;;;;;;;;;
2023/07/05 14:26:10;;;;;;;3.7;1.3;;;;;;;;;;;;;
2023/07/05 14:28:34;;;;;;;1.9;1.1;;;;;;;;;;;;;
2023/07/05 14:31:01;;;;;;;3.1;2.3;;;;;;;;;;;;;
2023/07/05 14:33:26;;;;;;;2.8;1.7;;;;;;;;;;;;;
2023/07/05 14:35:53;;;;;;;2.7;1.5;;;;;;;;;;;;;
2023/07/05 14:38:18;;;;;;;3.2;1.5;;;;;;;;;;;;;
2023/07/05 14:40:47;;;;;;;2.1;1.4;;;;;;;;;;;;;
2023/07/05 14:43:10;;;;;;;1.9;1.2;;;;;;;;;;;;;
2023/07/05 14:45:37;;;;;;;2.3;1.3;;;;;;;;;;;;;
2023/07/05 14:48:01;;;;;;;1.7;1.5;;;;;;;;;;;;;
2023/07/05 14:50:27;;;;;;;2;1.2;;;;;;;;;;;;;
2023/07/05 14:52:52;;;;;;;1.4;1.3;;;;;;;;;;;;;
2023/07/05 14:55:18;;;;;;;3.1;1.2;;;;;;;;;;;;;
2023/07/05 14:57:43;;;;;;;1.5;1.1;;;;;;;;;;;;;
2023/07/05 15:00:11;;;;;;;3.5;1.4;;;;;;;;;;;;;
2023/07/05 15:02:36;;;;;;;1.6;1.3;;;;;;;;;;;;;
2023/07/05 15:05:01;;;;;;;1.1;1.1;;;;;;;;;;;;;
2023/07/05 15:07:27;;;;;;;3.8;1.9;;;;;;;;;;;;;
2023/07/05 15:09:53;;;;;;;1.9;1.4;;;;;;;;;;;;;
2023/07/05 15:12:20;;;;;;;1.5;1.2;;;;;;;;;;;;;
2023/07/05 15:14:45;;;;;;;2.4;1.1;;;;;;;;;;;;;
2023/07/05 15:17:11;;;;;;;1.6;1.2;;;;;;;;;;;;;
2023/07/05 15:19:36;;;;;;;1.4;1.1;;;;;;;;;;;;;
2023/07/05 15:22:02;;;;;;;2;1.1;;;;;;;;;;;;;
2023/07/05 15:24:26;;;;;;;1.8;1.3;;;;;;;;;;;;;
2023/07/05 15:26:52;;;;;;;2.1;1;;;;;;;;;;;;;
2023/07/05 15:29:18;;;;;;;2.1;1.2;;;;;;;;;;;;;
2023/07/05 15:31:44;;;;;;;2.2;1.2;;;;;;;;;;;;;
2023/07/05 15:34:10;;;;;;;1.3;1.1;;;;;;;;;;;;;
2023/07/05 15:36:36;;;;;;;3.3;1.3;;;;;;;;;;;;;
2023/07/05 15:39:02;;;;;;;1.8;1.3;;;;;;;;;;;;;
2023/07/05 15:41:28;;;;;;;1.4;1.3;;;;;;;;;;;;;
2023/07/05 15:43:53;;;;;;;2.7;1.1;;;;;;;;;;;;;
2023/07/05 15:46:18;;;;;;;1.5;1.1;;;;;;;;;;;;;
2023/07/05 15:48:43;;;;;;;1.8;1.1;;;;;;;;;;;;;
2023/07/05 15:51:11;;;;;;;1.2;1.1;;;;;;;;;;;;;
2023/07/05 15:53:34;;;;;;;1.8;1.3;;;;;;;;;;;;;
2023/07/05 15:56:01;;;;;;;3.4;1.3;;;;;;;;;;;;;
2023/07/05 15:58:29;;;;;;;1.5;1.4;;;;;;;;;;;;;
2023/07/05 16:00:54;;;;;;;1.5;1.2;;;;;;;;;;;;;
2023/07/05 16:03:20;;;;;;;1.7;1.2;;;;;;;;;;;;;
2023/07/05 16:05:41;;;;;;;1.4;1.3;;;;;;;;;;;;;
2023/07/05 16:08:07;;;;;;;2.5;1.3;;;;;;;;;;;;;
2023/07/05 16:10:32;;;;;;;2.2;1.6;;;;;;;;;;;;;
2023/07/05 16:12:59;;;;;;;2;1.3;;;;;;;;;;;;;
2023/07/05 16:15:22;;;;;;;1.9;1.3;;;;;;;;;;;;;
2023/07/05 16:17:47;;;;;;;2.9;1.3;;;;;;;;;;;;;
2023/07/05 16:20:16;;;;;;;1.8;1.6;;;;;;;;;;;;;
2023/07/05 16:22:41;;;;;;;1.7;1.4;;;;;;;;;;;;;
2023/07/05 16:25:11;;;;;;;2;1.5;;;;;;;;;;;;;
2023/07/05 16:27:38;;;;;;;3.5;1.6;;;;;;;;;;;;;
2023/07/05 16:30:03;;;;;;;2.4;1.5;;;;;;;;;;;;;
2023/07/05 16:32:30;;;;;;;2.5;1.6;;;;;;;;;;;;;
2023/07/05 16:34:55;;;;;;;2.5;1.9;;;;;;;;;;;;;
2023/07/05 16:37:21;;;;;;;2.3;1.6;;;;;;;;;;;;;
2023/07/05 16:39:46;;;;;;;2.5;1.5;;;;;;;;;;;;;
2023/07/05 16:42:13;;;;;;;2.5;1.5;;;;;;;;;;;;;
2023/07/05 16:44:36;;;;;;;3.2;1.5;;;;;;;;;;;;;
2023/07/05 16:47:02;;;;;;;2.4;1.6;;;;;;;;;;;;;
2023/07/05 16:49:28;;;;;;;2.3;1.7;;;;;;;;;;;;;
2023/07/05 16:51:55;;;;;;;2.7;1.8;;;;;;;;;;;;;
2023/07/05 16:54:18;;;;;;;3.5;1.7;;;;;;;;;;;;;
2023/07/05 16:56:44;;;;;;;4.9;2.1;;;;;;;;;;;;;
2023/07/05 16:59:09;;;;;;;2.3;1.7;;;;;;;;;;;;;
2023/07/05 17:01:36;;;;;;;2.8;1.6;;;;;;;;;;;;;
2023/07/05 17:04:01;;;;;;;1.9;1.6;;;;;;;;;;;;;
2023/07/05 17:06:29;;;;;;;1.5;1.4;;;;;;;;;;;;;
2023/07/05 17:08:55;;;;;;;3.7;2.9;;;;;;;;;;;;;
2023/07/05 17:11:20;;;;;;;3.9;3.1;;;;;;;;;;;;;
2023/07/05 17:13:45;;;;;;;3.2;1.9;;;;;;;;;;;;;
2023/07/05 17:16:14;;;;;;;3.5;1.8;;;;;;;;;;;;;
2023/07/05 17:18:38;;;;;;;3.8;1.8;;;;;;;;;;;;;
2023/07/05 17:21:03;;;;;;;2.1;1.6;;;;;;;;;;;;;
2023/07/05 17:23:28;;;;;;;2.3;1.8;;;;;;;;;;;;;
2023/07/05 17:25:55;;;;;;;3.1;1.8;;;;;;;;;;;;;
2023/07/05 17:28:20;;;;;;;3.2;2.1;;;;;;;;;;;;;
2023/07/05 17:30:47;;;;;;;3.9;2;;;;;;;;;;;;;
2023/07/05 17:33:12;;;;;;;2.7;2;;;;;;;;;;;;;
2023/07/05 17:35:37;;;;;;;3.9;2.1;;;;;;;;;;;;;
2023/07/05 17:38:02;;;;;;;3.5;2;;;;;;;;;;;;;
2023/07/05 17:40:28;;;;;;;3.7;2.2;;;;;;;;;;;;;
2023/07/05 17:42:53;;;;;;;3.2;1.9;;;;;;;;;;;;;
2023/07/05 17:45:19;;;;;;;2.8;1.6;;;;;;;;;;;;;
2023/07/05 17:47:44;;;;;;;2.4;1.6;;;;;;;;;;;;;
2023/07/05 17:50:11;;;;;;;3.4;2;;;;;;;;;;;;;
2023/07/05 17:52:37;;;;;;;2.6;1.8;;;;;;;;;;;;;
2023/07/05 17:55:02;;;;;;;3.1;2;;;;;;;;;;;;;
2023/07/05 17:57:27;;;;;;;2.1;1.9;;;;;;;;;;;;;
2023/07/05 17:59:52;;;;;;;3;2.1;;;;;;;;;;;;;
2023/07/05 18:02:18;;;;;;;2.1;1.6;;;;;;;;;;;;;
2023/07/05 18:04:45;;;;;;;2.2;1.6;;;;;;;;;;;;;
2023/07/05 18:07:10;;;;;;;2.3;1.9;;;;;;;;;;;;;
2023/07/05 18:09:35;;;;;;;2.7;1.8;;;;;;;;;;;;;
2023/07/05 18:12:00;;;;;;;2.6;1.8;;;;;;;;;;;;;
2023/07/05 18:14:26;;;;;;;3.2;2;;;;;;;;;;;;;
2023/07/05 18:16:52;;;;;;;4.4;1.9;;;;;;;;;;;;;
2023/07/05 18:19:18;;;;;;;2.7;1.7;;;;;;;;;;;;;
2023/07/05 18:21:45;;;;;;;2.5;1.7;;;;;;;;;;;;;
2023/07/05 18:24:10;;;;;;;2.8;1.6;;;;;;;;;;;;;
2023/07/05 18:26:34;;;;;;;3.8;2.1;;;;;;;;;;;;;
2023/07/05 18:29:01;;;;;;;4.5;2.1;;;;;;;;;;;;;
2023/07/05 18:31:26;;;;;;;1.7;1.4;;;;;;;;;;;;;
2023/07/05 18:33:53;;;;;;;2;1.6;;;;;;;;;;;;;
2023/07/05 18:36:20;;;;;;;2.9;1.6;;;;;;;;;;;;;
2023/07/05 18:38:42;;;;;;;2;1.7;;;;;;;;;;;;;
2023/07/05 18:41:07;;;;;;;3.4;1.6;;;;;;;;;;;;;
2023/07/05 18:43:32;;;;;;;2.6;1.5;;;;;;;;;;;;;
2023/07/05 18:45:57;;;;;;;2.8;1.5;;;;;;;;;;;;;
2023/07/05 18:48:25;;;;;;;2.5;1.6;;;;;;;;;;;;;
2023/07/05 18:50:50;;;;;;;3;1.7;;;;;;;;;;;;;
2023/07/05 18:53:15;;;;;;;4.1;1.6;;;;;;;;;;;;;
2023/07/05 18:55:41;;;;;;;3.2;1.8;;;;;;;;;;;;;
2023/07/05 18:58:07;;;;;;;2.9;1.6;;;;;;;;;;;;;
2023/07/05 19:00:32;;;;;;;2.9;1.8;;;;;;;;;;;;;
2023/07/05 19:02:58;;;;;;;2.6;1.7;;;;;;;;;;;;;
2023/07/05 19:05:23;;;;;;;2.1;1.8;;;;;;;;;;;;;
2023/07/05 19:07:49;;;;;;;3.3;1.8;;;;;;;;;;;;;
2023/07/05 19:10:17;;;;;;;2.8;1.9;;;;;;;;;;;;;